sensor_id;sensor_type;location;lat;lon;timestamp;temperature;humidity
7204;DHT22;3643;52.460;13.322;2023-07-09T00:01:57;20.50;82.20
7204;DHT22;3643;52.460;13.322;2023-07-09T00:04:26;20.40;82.30
7204;DHT22;3643;52.460;13.322;2023-07-09T00:06:56;20.40;82.40
7204;DHT22;3643;52.460;13.322;2023-07-09T00:09:26;20.40;82.70
7204;DHT22;3643;52.460;13.322;2023-07-09T00:11:55;20.30;82.60
7204;DHT22;3643;52.460;13.322;2023-07-09T00:14:23;20.30;82.90
7204;DHT22;3643;52.460;13.322;2023-07-09T00:16:53;20.20;83.00
7204;DHT22;3643;52.460;13.322;2023-07-09T00:19:24;20.20;83.10
7204;DHT22;3643;52.460;13.322;2023-07-09T00:21:56;18.90;81.90
7204;DHT22;3643;52.460;13.322;2023-07-09T00:24:25;20.20;83.40
7204;DHT22;3643;52.460;13.322;2023-07-09T00:26:54;20.20;83.50
7204;DHT22;3643;52.460;13.322;2023-07-09T00:29:22;20.20;83.70
7204;DHT22;3643;52.460;13.322;2023-07-09T00:31:52;20.20;83.70
7204;DHT22;3643;52.460;13.322;2023-07-09T00:34:21;20.20;83.80
7204;DHT22;3643;52.460;13.322;2023-07-09T00:36:51;20.20;84.00
7204;DHT22;3643;52.460;13.322;2023-07-09T00:39:22;20.10;84.10
7204;DHT22;3643;52.460;13.322;2023-07-09T00:41:50;20.10;84.20
7204;DHT22;3643;52.460;13.322;2023-07-09T00:44:28;20.00;84.40
7204;DHT22;3643;52.460;13.322;2023-07-09T00:47:22;20.00;84.60
7204;DHT22;3643;52.460;13.322;2023-07-09T00:50:09;20.00;84.70
7204;DHT22;3643;52.460;13.322;2023-07-09T00:52:43;20.00;84.80
7204;DHT22;3643;52.460;13.322;2023-07-09T00:55:19;20.00;84.90
7204;DHT22;3643;52.460;13.322;2023-07-09T00:57:51;20.00;85.10
7204;DHT22;3643;52.460;13.322;2023-07-09T01:00:28;19.90;85.10
7204;DHT22;3643;52.460;13.322;2023-07-09T01:03:06;19.90;85.20
7204;DHT22;3643;52.460;13.322;2023-07-09T01:05:35;19.80;85.30
7204;DHT22;3643;52.460;13.322;2023-07-09T01:08:05;19.80;85.50
7204;DHT22;3643;52.460;13.322;2023-07-09T01:10:34;19.80;85.70
7204;DHT22;3643;52.460;13.322;2023-07-09T01:13:02;19.80;85.70
7204;DHT22;3643;52.460;13.322;2023-07-09T01:15:31;19.80;85.80
7204;DHT22;3643;52.460;13.322;2023-07-09T01:18:00;19.70;85.90
7204;DHT22;3643;52.460;13.322;2023-07-09T01:20:31;19.70;86.20
7204;DHT22;3643;52.460;13.322;2023-07-09T01:23:01;19.70;86.20
7204;DHT22;3643;52.460;13.322;2023-07-09T01:25:30;19.60;86.30
7204;DHT22;3643;52.460;13.322;2023-07-09T01:27:58;19.60;86.60
7204;DHT22;3643;52.460;13.322;2023-07-09T01:30:30;19.60;86.80
7204;DHT22;3643;52.460;13.322;2023-07-09T01:33:00;19.50;86.90
7204;DHT22;3643;52.460;13.322;2023-07-09T01:35:32;19.50;87.10
7204;DHT22;3643;52.460;13.322;2023-07-09T01:38:02;19.50;87.20
7204;DHT22;3643;52.460;13.322;2023-07-09T01:40:34;19.40;87.30
7204;DHT22;3643;52.460;13.322;2023-07-09T01:43:05;19.40;87.50
7204;DHT22;3643;52.460;13.322;2023-07-09T01:45:36;19.40;87.70
7204;DHT22;3643;52.460;13.322;2023-07-09T01:48:06;19.40;87.90
7204;DHT22;3643;52.460;13.322;2023-07-09T01:50:42;19.40;88.00
7204;DHT22;3643;52.460;13.322;2023-07-09T01:53:13;19.30;88.00
7204;DHT22;3643;52.460;13.322;2023-07-09T01:55:42;19.30;88.30
7204;DHT22;3643;52.460;13.322;2023-07-09T01:58:11;19.30;88.50
7204;DHT22;3643;52.460;13.322;2023-07-09T02:00:40;19.20;88.50
7204;DHT22;3643;52.460;13.322;2023-07-09T02:03:09;19.20;88.70
7204;DHT22;3643;52.460;13.322;2023-07-09T02:05:37;19.20;88.90
7204;DHT22;3643;52.460;13.322;2023-07-09T02:08:05;19.10;89.20
7204;DHT22;3643;52.460;13.322;2023-07-09T02:10:35;19.20;89.40
7204;DHT22;3643;52.460;13.322;2023-07-09T02:13:03;19.10;89.30
7204;DHT22;3643;52.460;13.322;2023-07-09T02:15:32;19.10;89.60
7204;DHT22;3643;52.460;13.322;2023-07-09T02:18:00;19.10;89.90
7204;DHT22;3643;52.460;13.322;2023-07-09T02:20:29;19.00;90.00
7204;DHT22;3643;52.460;13.322;2023-07-09T02:22:57;19.00;90.10
7204;DHT22;3643;52.460;13.322;2023-07-09T02:25:26;18.90;90.10
7204;DHT22;3643;52.460;13.322;2023-07-09T02:27:55;18.90;90.20
7204;DHT22;3643;52.460;13.322;2023-07-09T02:30:24;18.80;90.40
7204;DHT22;3643;52.460;13.322;2023-07-09T02:32:52;18.80;90.50
7204;DHT22;3643;52.460;13.322;2023-07-09T02:35:21;18.70;90.60
7204;DHT22;3643;52.460;13.322;2023-07-09T02:37:50;18.70;90.70
7204;DHT22;3643;52.460;13.322;2023-07-09T02:40:18;18.70;90.80
7204;DHT22;3643;52.460;13.322;2023-07-09T02:42:46;18.70;90.90
7204;DHT22;3643;52.460;13.322;2023-07-09T02:45:16;18.70;91.00
7204;DHT22;3643;52.460;13.322;2023-07-09T02:47:44;18.70;91.20
7204;DHT22;3643;52.460;13.322;2023-07-09T02:50:13;18.60;91.20
7204;DHT22;3643;52.460;13.322;2023-07-09T02:52:41;18.60;91.30
7204;DHT22;3643;52.460;13.322;2023-07-09T02:55:11;18.60;91.40
7204;DHT22;3643;52.460;13.322;2023-07-09T02:57:40;18.60;91.50
7204;DHT22;3643;52.460;13.322;2023-07-09T03:00:09;18.60;91.50
7204;DHT22;3643;52.460;13.322;2023-07-09T03:02:39;18.50;91.50
7204;DHT22;3643;52.460;13.322;2023-07-09T03:05:08;18.60;91.60
7204;DHT22;3643;52.460;13.322;2023-07-09T03:07:37;18.50;91.70
7204;DHT22;3643;52.460;13.322;2023-07-09T03:10:07;18.50;91.80
7204;DHT22;3643;52.460;13.322;2023-07-09T03:12:35;18.50;91.80
7204;DHT22;3643;52.460;13.322;2023-07-09T03:15:05;18.50;92.00
7204;DHT22;3643;52.460;13.322;2023-07-09T03:17:33;18.50;92.00
7204;DHT22;3643;52.460;13.322;2023-07-09T03:20:04;18.60;92.10
7204;DHT22;3643;52.460;13.322;2023-07-09T03:22:34;18.60;92.00
7204;DHT22;3643;52.460;13.322;2023-07-09T03:25:03;18.70;92.00
7204;DHT22;3643;52.460;13.322;2023-07-09T03:27:31;18.70;92.10
7204;DHT22;3643;52.460;13.322;2023-07-09T03:30:00;18.80;92.00
7204;DHT22;3643;52.460;13.322;2023-07-09T03:32:30;18.90;91.90
7204;DHT22;3643;52.460;13.322;2023-07-09T03:34:58;18.90;91.90
7204;DHT22;3643;52.460;13.322;2023-07-09T03:37:28;18.90;91.90
7204;DHT22;3643;52.460;13.322;2023-07-09T03:39:57;19.00;91.80
7204;DHT22;3643;52.460;13.322;2023-07-09T03:42:26;19.10;91.90
7204;DHT22;3643;52.460;13.322;2023-07-09T03:44:54;19.10;91.80
7204;DHT22;3643;52.460;13.322;2023-07-09T03:47:22;19.20;91.70
7204;DHT22;3643;52.460;13.322;2023-07-09T03:49:51;19.20;91.70
7204;DHT22;3643;52.460;13.322;2023-07-09T03:52:19;19.30;91.70
7204;DHT22;3643;52.460;13.322;2023-07-09T03:54:49;19.40;91.70
7204;DHT22;3643;52.460;13.322;2023-07-09T03:57:17;19.40;91.60
7204;DHT22;3643;52.460;13.322;2023-07-09T03:59:46;19.50;91.60
7204;DHT22;3643;52.460;13.322;2023-07-09T04:02:14;19.60;91.50
7204;DHT22;3643;52.460;13.322;2023-07-09T04:04:42;19.60;91.30
7204;DHT22;3643;52.460;13.322;2023-07-09T04:07:10;19.70;91.30
7204;DHT22;3643;52.460;13.322;2023-07-09T04:09:39;19.80;91.20
7204;DHT22;3643;52.460;13.322;2023-07-09T04:12:10;19.80;90.90
7204;DHT22;3643;52.460;13.322;2023-07-09T04:14:39;19.90;90.70
7204;DHT22;3643;52.460;13.322;2023-07-09T04:17:07;20.00;90.70
7204;DHT22;3643;52.460;13.322;2023-07-09T04:19:35;20.00;90.60
7204;DHT22;3643;52.460;13.322;2023-07-09T04:22:04;20.10;90.40
7204;DHT22;3643;52.460;13.322;2023-07-09T04:24:32;20.10;90.40
7204;DHT22;3643;52.460;13.322;2023-07-09T04:27:00;20.10;90.40
7204;DHT22;3643;52.460;13.322;2023-07-09T04:29:32;20.20;90.30
7204;DHT22;3643;52.460;13.322;2023-07-09T04:32:00;20.30;90.20
7204;DHT22;3643;52.460;13.322;2023-07-09T04:34:29;20.30;90.20
7204;DHT22;3643;52.460;13.322;2023-07-09T04:36:57;20.40;90.10
7204;DHT22;3643;52.460;13.322;2023-07-09T04:39:25;20.50;90.00
7204;DHT22;3643;52.460;13.322;2023-07-09T04:41:53;20.60;89.90
7204;DHT22;3643;52.460;13.322;2023-07-09T04:44:21;20.60;89.50
7204;DHT22;3643;52.460;13.322;2023-07-09T04:46:51;20.70;89.20
7204;DHT22;3643;52.460;13.322;2023-07-09T04:49:19;20.70;89.20
7204;DHT22;3643;52.460;13.322;2023-07-09T04:51:47;20.80;89.00
7204;DHT22;3643;52.460;13.322;2023-07-09T04:54:15;20.80;89.10
7204;DHT22;3643;52.460;13.322;2023-07-09T04:56:43;20.90;89.10
7204;DHT22;3643;52.460;13.322;2023-07-09T04:59:12;21.00;88.80
7204;DHT22;3643;52.460;13.322;2023-07-09T05:01:40;21.20;88.60
7204;DHT22;3643;52.460;13.322;2023-07-09T05:04:10;21.20;88.10
7204;DHT22;3643;52.460;13.322;2023-07-09T05:06:38;21.30;88.00
7204;DHT22;3643;52.460;13.322;2023-07-09T05:09:06;21.50;87.40
7204;DHT22;3643;52.460;13.322;2023-07-09T05:11:35;22.10;87.60
7204;DHT22;3643;52.460;13.322;2023-07-09T05:14:04;23.40;85.50
7204;DHT22;3643;52.460;13.322;2023-07-09T05:16:32;24.90;83.10
7204;DHT22;3643;52.460;13.322;2023-07-09T05:19:00;26.40;81.10
7204;DHT22;3643;52.460;13.322;2023-07-09T05:21:30;27.90;78.40
7204;DHT22;3643;52.460;13.322;2023-07-09T05:23:58;29.30;76.40
7204;DHT22;3643;52.460;13.322;2023-07-09T05:26:26;30.30;74.50
7204;DHT22;3643;52.460;13.322;2023-07-09T05:28:54;31.20;73.10
7204;DHT22;3643;52.460;13.322;2023-07-09T05:31:24;31.20;70.40
7204;DHT22;3643;52.460;13.322;2023-07-09T05:33:53;30.40;70.70
7204;DHT22;3643;52.460;13.322;2023-07-09T05:36:21;30.00;72.00
7204;DHT22;3643;52.460;13.322;2023-07-09T05:38:50;30.00;71.80
7204;DHT22;3643;52.460;13.322;2023-07-09T05:41:19;30.10;71.30
7204;DHT22;3643;52.460;13.322;2023-07-09T05:43:47;31.20;70.70
7204;DHT22;3643;52.460;13.322;2023-07-09T05:46:15;31.10;70.20
7204;DHT22;3643;52.460;13.322;2023-07-09T05:48:43;32.70;69.60
7204;DHT22;3643;52.460;13.322;2023-07-09T05:51:11;34.10;67.60
7204;DHT22;3643;52.460;13.322;2023-07-09T05:53:40;34.30;65.90
7204;DHT22;3643;52.460;13.322;2023-07-09T05:56:09;34.00;65.80
7204;DHT22;3643;52.460;13.322;2023-07-09T05:58:37;34.00;65.60
7204;DHT22;3643;52.460;13.322;2023-07-09T06:01:06;34.20;65.90
7204;DHT22;3643;52.460;13.322;2023-07-09T06:03:34;34.20;65.50
7204;DHT22;3643;52.460;13.322;2023-07-09T06:06:03;33.90;66.10
7204;DHT22;3643;52.460;13.322;2023-07-09T06:08:33;34.50;65.70
7204;DHT22;3643;52.460;13.322;2023-07-09T06:11:03;34.60;65.30
7204;DHT22;3643;52.460;13.322;2023-07-09T06:13:33;35.20;64.00
7204;DHT22;3643;52.460;13.322;2023-07-09T06:16:01;34.60;64.70
7204;DHT22;3643;52.460;13.322;2023-07-09T06:18:30;34.80;64.70
7204;DHT22;3643;52.460;13.322;2023-07-09T06:21:00;35.50;64.70
7204;DHT22;3643;52.460;13.322;2023-07-09T06:23:29;35.80;63.30
7204;DHT22;3643;52.460;13.322;2023-07-09T06:25:58;35.20;63.70
7204;DHT22;3643;52.460;13.322;2023-07-09T06:28:27;35.40;63.80
7204;DHT22;3643;52.460;13.322;2023-07-09T06:30:58;35.90;63.40
7204;DHT22;3643;52.460;13.322;2023-07-09T06:33:26;35.50;63.00
7204;DHT22;3643;52.460;13.322;2023-07-09T06:35:57;36.40;63.00
7204;DHT22;3643;52.460;13.322;2023-07-09T06:38:26;36.50;62.80
7204;DHT22;3643;52.460;13.322;2023-07-09T06:40:54;37.50;62.20
7204;DHT22;3643;52.460;13.322;2023-07-09T06:43:23;37.50;61.70
7204;DHT22;3643;52.460;13.322;2023-07-09T06:45:55;37.80;61.20
7204;DHT22;3643;52.460;13.322;2023-07-09T06:48:27;38.00;60.90
7204;DHT22;3643;52.460;13.322;2023-07-09T06:50:57;37.90;60.60
7204;DHT22;3643;52.460;13.322;2023-07-09T06:53:26;37.60;60.60
7204;DHT22;3643;52.460;13.322;2023-07-09T06:55:56;36.70;62.30
7204;DHT22;3643;52.460;13.322;2023-07-09T06:58:27;37.20;61.80
7204;DHT22;3643;52.460;13.322;2023-07-09T07:00:56;37.30;62.20
7204;DHT22;3643;52.460;13.322;2023-07-09T07:03:26;37.20;62.00
7204;DHT22;3643;52.460;13.322;2023-07-09T07:05:54;38.00;61.90
7204;DHT22;3643;52.460;13.322;2023-07-09T07:08:24;38.70;60.60
7204;DHT22;3643;52.460;13.322;2023-07-09T07:10:55;39.70;60.00
7204;DHT22;3643;52.460;13.322;2023-07-09T07:13:29;40.00;60.70
7204;DHT22;3643;52.460;13.322;2023-07-09T07:15:58;40.80;60.20
7204;DHT22;3643;52.460;13.322;2023-07-09T07:18:28;41.30;59.00
7204;DHT22;3643;52.460;13.322;2023-07-09T07:20:56;40.40;58.10
7204;DHT22;3643;52.460;13.322;2023-07-09T07:23:24;40.90;59.50
7204;DHT22;3643;52.460;13.322;2023-07-09T07:25:53;39.60;60.70
7204;DHT22;3643;52.460;13.322;2023-07-09T07:28:22;38.90;60.80
7204;DHT22;3643;52.460;13.322;2023-07-09T07:31:01;39.90;60.40
7204;DHT22;3643;52.460;13.322;2023-07-09T07:33:31;40.50;59.10
7204;DHT22;3643;52.460;13.322;2023-07-09T07:36:00;40.00;60.00
7204;DHT22;3643;52.460;13.322;2023-07-09T07:38:50;39.00;59.50
7204;DHT22;3643;52.460;13.322;2023-07-09T07:41:18;39.40;59.40
7204;DHT22;3643;52.460;13.322;2023-07-09T07:43:46;39.90;59.90
7204;DHT22;3643;52.460;13.322;2023-07-09T07:46:14;40.90;59.10
7204;DHT22;3643;52.460;13.322;2023-07-09T07:48:44;39.50;59.70
7204;DHT22;3643;52.460;13.322;2023-07-09T07:51:12;39.80;61.60
7204;DHT22;3643;52.460;13.322;2023-07-09T07:53:41;40.10;59.30
7204;DHT22;3643;52.460;13.322;2023-07-09T07:56:09;40.20;59.50
7204;DHT22;3643;52.460;13.322;2023-07-09T07:58:37;40.80;59.20
7204;DHT22;3643;52.460;13.322;2023-07-09T08:01:05;40.90;58.20
7204;DHT22;3643;52.460;13.322;2023-07-09T08:03:34;39.00;59.20
7204;DHT22;3643;52.460;13.322;2023-07-09T08:06:04;37.50;61.40
7204;DHT22;3643;52.460;13.322;2023-07-09T08:08:33;38.10;61.60
7204;DHT22;3643;52.460;13.322;2023-07-09T08:11:02;39.20;61.70
7204;DHT22;3643;52.460;13.322;2023-07-09T08:13:33;40.60;60.80
7204;DHT22;3643;52.460;13.322;2023-07-09T08:16:04;41.60;60.00
7204;DHT22;3643;52.460;13.322;2023-07-09T08:18:33;41.80;59.00
7204;DHT22;3643;52.460;13.322;2023-07-09T08:21:03;41.70;58.00
7204;DHT22;3643;52.460;13.322;2023-07-09T08:23:32;41.80;59.30
7204;DHT22;3643;52.460;13.322;2023-07-09T08:26:02;40.80;58.80
7204;DHT22;3643;52.460;13.322;2023-07-09T08:28:31;40.60;58.10
7204;DHT22;3643;52.460;13.322;2023-07-09T08:31:00;40.40;59.10
7204;DHT22;3643;52.460;13.322;2023-07-09T08:33:29;40.90;57.60
7204;DHT22;3643;52.460;13.322;2023-07-09T08:35:58;41.00;57.40
7204;DHT22;3643;52.460;13.322;2023-07-09T08:38:28;41.30;56.70
7204;DHT22;3643;52.460;13.322;2023-07-09T08:40:58;41.00;56.80
7204;DHT22;3643;52.460;13.322;2023-07-09T08:43:52;40.50;57.70
7204;DHT22;3643;52.460;13.322;2023-07-09T08:46:29;41.00;57.40
7204;DHT22;3643;52.460;13.322;2023-07-09T08:49:02;41.60;57.60
7204;DHT22;3643;52.460;13.322;2023-07-09T08:51:36;41.00;56.90
7204;DHT22;3643;52.460;13.322;2023-07-09T08:54:13;40.50;56.90
7204;DHT22;3643;52.460;13.322;2023-07-09T08:56:44;40.30;57.40
7204;DHT22;3643;52.460;13.322;2023-07-09T08:59:15;39.90;56.80
7204;DHT22;3643;52.460;13.322;2023-07-09T09:01:49;39.70;57.30
7204;DHT22;3643;52.460;13.322;2023-07-09T09:04:21;39.00;57.40
7204;DHT22;3643;52.460;13.322;2023-07-09T09:06:57;37.10;58.60
7204;DHT22;3643;52.460;13.322;2023-07-09T09:09:33;36.10;58.90
7204;DHT22;3643;52.460;13.322;2023-07-09T09:12:12;34.90;60.20
7204;DHT22;3643;52.460;13.322;2023-07-09T09:14:44;33.90;60.70
7204;DHT22;3643;52.460;13.322;2023-07-09T09:17:17;33.20;60.80
7204;DHT22;3643;52.460;13.322;2023-07-09T09:19:50;32.80;60.80
7204;DHT22;3643;52.460;13.322;2023-07-09T09:22:23;32.40;62.00
7204;DHT22;3643;52.460;13.322;2023-07-09T09:25:03;32.10;62.90
7204;DHT22;3643;52.460;13.322;2023-07-09T09:27:33;31.90;63.40
7204;DHT22;3643;52.460;13.322;2023-07-09T09:30:02;31.80;62.30
7204;DHT22;3643;52.460;13.322;2023-07-09T09:32:36;31.50;62.30
7204;DHT22;3643;52.460;13.322;2023-07-09T09:35:12;31.20;62.70
7204;DHT22;3643;52.460;13.322;2023-07-09T09:37:44;30.80;63.00
7204;DHT22;3643;52.460;13.322;2023-07-09T09:40:20;31.20;63.60
7204;DHT22;3643;52.460;13.322;2023-07-09T09:42:51;31.30;63.80
7204;DHT22;3643;52.460;13.322;2023-07-09T09:45:24;31.30;63.90
7204;DHT22;3643;52.460;13.322;2023-07-09T09:47:59;31.10;63.10
7204;DHT22;3643;52.460;13.322;2023-07-09T09:50:32;31.00;63.00
7204;DHT22;3643;52.460;13.322;2023-07-09T09:53:01;31.00;63.80
7204;DHT22;3643;52.460;13.322;2023-07-09T09:55:31;31.00;63.70
7204;DHT22;3643;52.460;13.322;2023-07-09T09:58:01;30.80;64.00
7204;DHT22;3643;52.460;13.322;2023-07-09T10:00:30;30.60;64.10
7204;DHT22;3643;52.460;13.322;2023-07-09T10:03:02;30.70;65.00
7204;DHT22;3643;52.460;13.322;2023-07-09T10:05:34;30.80;65.80
7204;DHT22;3643;52.460;13.322;2023-07-09T10:08:08;30.90;65.50
7204;DHT22;3643;52.460;13.322;2023-07-09T10:10:40;30.90;65.20
7204;DHT22;3643;52.460;13.322;2023-07-09T10:13:21;30.60;64.50
7204;DHT22;3643;52.460;13.322;2023-07-09T10:16:01;30.50;64.90
7204;DHT22;3643;52.460;13.322;2023-07-09T10:18:39;30.50;64.90
7204;DHT22;3643;52.460;13.322;2023-07-09T10:21:14;30.60;65.30
7204;DHT22;3643;52.460;13.322;2023-07-09T10:23:49;30.50;64.60
7204;DHT22;3643;52.460;13.322;2023-07-09T10:26:25;30.60;65.50
7204;DHT22;3643;52.460;13.322;2023-07-09T10:29:08;30.60;65.30
7204;DHT22;3643;52.460;13.322;2023-07-09T10:31:50;30.70;64.60
7204;DHT22;3643;52.460;13.322;2023-07-09T10:34:27;30.50;64.90
7204;DHT22;3643;52.460;13.322;2023-07-09T10:39:59;30.70;63.60
7204;DHT22;3643;52.460;13.322;2023-07-09T10:42:35;30.70;64.10
7204;DHT22;3643;52.460;13.322;2023-07-09T10:45:10;30.60;63.80
7204;DHT22;3643;52.460;13.322;2023-07-09T10:47:43;30.70;64.00
7204;DHT22;3643;52.460;13.322;2023-07-09T10:50:17;30.70;63.90
7204;DHT22;3643;52.460;13.322;2023-07-09T10:52:48;30.70;63.30
7204;DHT22;3643;52.460;13.322;2023-07-09T10:55:26;30.60;63.50
7204;DHT22;3643;52.460;13.322;2023-07-09T10:58:02;30.20;62.40
7204;DHT22;3643;52.460;13.322;2023-07-09T11:00:34;30.20;62.00
7204;DHT22;3643;52.460;13.322;2023-07-09T11:03:09;30.80;63.20
7204;DHT22;3643;52.460;13.322;2023-07-09T11:05:41;30.80;63.70
7204;DHT22;3643;52.460;13.322;2023-07-09T11:08:13;30.90;63.40
7204;DHT22;3643;52.460;13.322;2023-07-09T11:10:50;30.80;63.90
7204;DHT22;3643;52.460;13.322;2023-07-09T11:13:26;30.90;63.70
7204;DHT22;3643;52.460;13.322;2023-07-09T11:16:20;30.90;64.10
7204;DHT22;3643;52.460;13.322;2023-07-09T11:18:55;30.90;63.70
7204;DHT22;3643;52.460;13.322;2023-07-09T11:21:23;30.80;63.30
7204;DHT22;3643;52.460;13.322;2023-07-09T11:23:53;30.80;63.80
7204;DHT22;3643;52.460;13.322;2023-07-09T11:26:24;30.70;62.80
7204;DHT22;3643;52.460;13.322;2023-07-09T11:28:55;30.70;63.60
7204;DHT22;3643;52.460;13.322;2023-07-09T11:31:31;30.70;62.70
7204;DHT22;3643;52.460;13.322;2023-07-09T11:34:07;30.80;63.30
7204;DHT22;3643;52.460;13.322;2023-07-09T11:36:46;30.80;63.40
7204;DHT22;3643;52.460;13.322;2023-07-09T11:39:20;30.80;63.50
7204;DHT22;3643;52.460;13.322;2023-07-09T11:41:51;30.80;64.10
7204;DHT22;3643;52.460;13.322;2023-07-09T11:44:22;30.80;63.30
7204;DHT22;3643;52.460;13.322;2023-07-09T11:46:59;30.90;62.40
7204;DHT22;3643;52.460;13.322;2023-07-09T11:49:38;31.00;62.50
7204;DHT22;3643;52.460;13.322;2023-07-09T11:52:10;30.90;63.30
7204;DHT22;3643;52.460;13.322;2023-07-09T11:54:39;31.20;63.30
7204;DHT22;3643;52.460;13.322;2023-07-09T11:57:12;31.00;63.60
7204;DHT22;3643;52.460;13.322;2023-07-09T11:59:42;31.00;62.90
7204;DHT22;3643;52.460;13.322;2023-07-09T12:02:17;30.80;63.00
7204;DHT22;3643;52.460;13.322;2023-07-09T12:04:50;30.90;64.00
7204;DHT22;3643;52.460;13.322;2023-07-09T12:07:26;31.00;64.00
7204;DHT22;3643;52.460;13.322;2023-07-09T12:09:54;31.00;64.50
7204;DHT22;3643;52.460;13.322;2023-07-09T12:12:26;31.00;64.10
7204;DHT22;3643;52.460;13.322;2023-07-09T12:14:56;31.10;64.30
7204;DHT22;3643;52.460;13.322;2023-07-09T12:17:26;31.10;63.40
7204;DHT22;3643;52.460;13.322;2023-07-09T12:19:57;31.10;64.00
7204;DHT22;3643;52.460;13.322;2023-07-09T12:22:26;31.20;63.60
7204;DHT22;3643;52.460;13.322;2023-07-09T12:24:54;31.20;64.30
7204;DHT22;3643;52.460;13.322;2023-07-09T12:27:25;31.10;65.00
7204;DHT22;3643;52.460;13.322;2023-07-09T12:29:56;31.10;63.60
7204;DHT22;3643;52.460;13.322;2023-07-09T12:32:25;31.20;63.30
7204;DHT22;3643;52.460;13.322;2023-07-09T12:34:56;31.30;63.70
7204;DHT22;3643;52.460;13.322;2023-07-09T12:37:25;31.30;64.00
7204;DHT22;3643;52.460;13.322;2023-07-09T12:39:59;31.30;63.60
7204;DHT22;3643;52.460;13.322;2023-07-09T12:42:30;31.40;63.50
7204;DHT22;3643;52.460;13.322;2023-07-09T12:45:01;31.40;63.10
7204;DHT22;3643;52.460;13.322;2023-07-09T12:47:29;31.40;62.80
7204;DHT22;3643;52.460;13.322;2023-07-09T12:50:03;31.40;63.40
7204;DHT22;3643;52.460;13.322;2023-07-09T12:52:45;31.50;64.00
7204;DHT22;3643;52.460;13.322;2023-07-09T12:55:21;31.50;63.10
7204;DHT22;3643;52.460;13.322;2023-07-09T12:57:50;31.60;63.50
7204;DHT22;3643;52.460;13.322;2023-07-09T13:00:20;31.60;62.80
7204;DHT22;3643;52.460;13.322;2023-07-09T13:02:54;31.60;63.60
7204;DHT22;3643;52.460;13.322;2023-07-09T13:05:24;31.60;64.50
7204;DHT22;3643;52.460;13.322;2023-07-09T13:07:54;31.70;64.10
7204;DHT22;3643;52.460;13.322;2023-07-09T13:10:28;31.70;63.00
7204;DHT22;3643;52.460;13.322;2023-07-09T13:13:00;31.80;63.20
7204;DHT22;3643;52.460;13.322;2023-07-09T13:15:31;31.70;63.90
7204;DHT22;3643;52.460;13.322;2023-07-09T13:18:09;31.80;64.60
7204;DHT22;3643;52.460;13.322;2023-07-09T13:20:39;31.70;63.50
7204;DHT22;3643;52.460;13.322;2023-07-09T13:23:10;31.80;63.20
7204;DHT22;3643;52.460;13.322;2023-07-09T13:25:39;31.90;63.00
7204;DHT22;3643;52.460;13.322;2023-07-09T13:28:19;31.90;63.40
7204;DHT22;3643;52.460;13.322;2023-07-09T13:30:50;31.90;63.80
7204;DHT22;3643;52.460;13.322;2023-07-09T13:33:19;31.90;64.70
7204;DHT22;3643;52.460;13.322;2023-07-09T13:35:47;31.80;65.00
7204;DHT22;3643;52.460;13.322;2023-07-09T13:38:21;31.80;63.40
7204;DHT22;3643;52.460;13.322;2023-07-09T13:40:54;31.80;63.70
7204;DHT22;3643;52.460;13.322;2023-07-09T13:43:28;31.90;63.50
7204;DHT22;3643;52.460;13.322;2023-07-09T13:46:00;31.90;63.60
7204;DHT22;3643;52.460;13.322;2023-07-09T13:48:31;31.90;62.80
7204;DHT22;3643;52.460;13.322;2023-07-09T13:51:00;31.90;63.50
7204;DHT22;3643;52.460;13.322;2023-07-09T13:53:31;32.00;64.40
7204;DHT22;3643;52.460;13.322;2023-07-09T13:55:59;32.00;64.30
7204;DHT22;3643;52.460;13.322;2023-07-09T13:58:27;32.00;64.20
7204;DHT22;3643;52.460;13.322;2023-07-09T14:00:59;32.00;63.10
7204;DHT22;3643;52.460;13.322;2023-07-09T14:03:34;32.00;62.10
7204;DHT22;3643;52.460;13.322;2023-07-09T14:06:03;32.00;62.30
7204;DHT22;3643;52.460;13.322;2023-07-09T14:08:31;32.10;62.60
7204;DHT22;3643;52.460;13.322;2023-07-09T14:11:00;32.10;62.90
7204;DHT22;3643;52.460;13.322;2023-07-09T14:13:29;32.00;62.30
7204;DHT22;3643;52.460;13.322;2023-07-09T14:16:02;32.00;62.60
7204;DHT22;3643;52.460;13.322;2023-07-09T14:18:30;32.00;63.00
7204;DHT22;3643;52.460;13.322;2023-07-09T14:20:58;32.00;63.00
7204;DHT22;3643;52.460;13.322;2023-07-09T14:23:27;32.00;63.00
7204;DHT22;3643;52.460;13.322;2023-07-09T14:25:56;32.00;62.90
7204;DHT22;3643;52.460;13.322;2023-07-09T14:28:25;31.90;64.20
7204;DHT22;3643;52.460;13.322;2023-07-09T14:30:53;31.80;64.60
7204;DHT22;3643;52.460;13.322;2023-07-09T14:33:23;31.60;64.70
7204;DHT22;3643;52.460;13.322;2023-07-09T14:35:51;31.50;65.20
7204;DHT22;3643;52.460;13.322;2023-07-09T14:38:22;31.40;64.80
7204;DHT22;3643;52.460;13.322;2023-07-09T14:40:52;31.50;64.00
7204;DHT22;3643;52.460;13.322;2023-07-09T14:43:22;31.50;63.60
7204;DHT22;3643;52.460;13.322;2023-07-09T14:45:50;31.00;62.60
7204;DHT22;3643;52.460;13.322;2023-07-09T14:48:20;32.00;63.00
7204;DHT22;3643;52.460;13.322;2023-07-09T14:50:49;31.90;62.50
7204;DHT22;3643;52.460;13.322;2023-07-09T14:53:21;32.00;62.70
7204;DHT22;3643;52.460;13.322;2023-07-09T14:55:54;31.90;62.20
7204;DHT22;3643;52.460;13.322;2023-07-09T14:58:23;32.00;62.20
7204;DHT22;3643;52.460;13.322;2023-07-09T15:00:52;32.00;62.90
7204;DHT22;3643;52.460;13.322;2023-07-09T15:03:22;32.10;62.70
7204;DHT22;3643;52.460;13.322;2023-07-09T15:05:52;32.20;62.80
7204;DHT22;3643;52.460;13.322;2023-07-09T15:08:22;32.20;62.80
7204;DHT22;3643;52.460;13.322;2023-07-09T15:10:53;32.30;62.80
7204;DHT22;3643;52.460;13.322;2023-07-09T15:13:27;32.30;62.50
7204;DHT22;3643;52.460;13.322;2023-07-09T15:15:57;32.30;62.70
7204;DHT22;3643;52.460;13.322;2023-07-09T15:18:26;32.30;62.80
7204;DHT22;3643;52.460;13.322;2023-07-09T15:20:58;32.30;62.80
7204;DHT22;3643;52.460;13.322;2023-07-09T15:23:27;32.20;63.00
7204;DHT22;3643;52.460;13.322;2023-07-09T15:25:56;32.20;63.20
7204;DHT22;3643;52.460;13.322;2023-07-09T15:28:25;32.10;63.20
7204;DHT22;3643;52.460;13.322;2023-07-09T15:30:53;32.10;63.40
7204;DHT22;3643;52.460;13.322;2023-07-09T15:33:22;32.00;62.90
7204;DHT22;3643;52.460;13.322;2023-07-09T15:35:50;32.00;63.00
7204;DHT22;3643;52.460;13.322;2023-07-09T15:38:29;31.90;63.40
7204;DHT22;3643;52.460;13.322;2023-07-09T15:40:58;31.90;63.10
7204;DHT22;3643;52.460;13.322;2023-07-09T15:43:28;31.90;63.30
7204;DHT22;3643;52.460;13.322;2023-07-09T15:45:57;31.80;62.90
7204;DHT22;3643;52.460;13.322;2023-07-09T15:48:31;31.80;63.40
7204;DHT22;3643;52.460;13.322;2023-07-09T15:51:00;31.80;63.00
7204;DHT22;3643;52.460;13.322;2023-07-09T15:53:31;31.80;63.10
7204;DHT22;3643;52.460;13.322;2023-07-09T15:56:02;31.70;63.20
7204;DHT22;3643;52.460;13.322;2023-07-09T15:58:39;31.70;63.20
7204;DHT22;3643;52.460;13.322;2023-07-09T16:01:10;31.60;63.10
7204;DHT22;3643;52.460;13.322;2023-07-09T16:03:42;31.70;63.50
7204;DHT22;3643;52.460;13.322;2023-07-09T16:06:10;31.80;63.40
7204;DHT22;3643;52.460;13.322;2023-07-09T16:08:40;32.00;63.20
7204;DHT22;3643;52.460;13.322;2023-07-09T16:11:14;32.00;63.20